createdAt,value
2023-07-25T00:00:32.334Z,95.8
2023-07-25T00:01:48.651Z,95.8
2023-07-25T00:03:04.920Z,95.8
2023-07-25T00:04:21.222Z,95.9
2023-07-25T00:05:37.519Z,95.8
2023-07-25T00:06:53.815Z,96
2023-07-25T00:08:10.116Z,96.1
2023-07-25T00:09:26.396Z,96.2
2023-07-25T00:10:42.690Z,96.3
2023-07-25T00:11:59.002Z,96.2
2023-07-25T00:13:15.283Z,96
2023-07-25T00:14:30.598Z,96.1
2023-07-25T00:15:46.866Z,96
2023-07-25T00:17:03.184Z,96.2
2023-07-25T00:18:19.471Z,96
2023-07-25T00:19:35.771Z,96.1
2023-07-25T00:20:52.072Z,96
2023-07-25T00:22:08.362Z,95.8
2023-07-25T00:23:24.646Z,96
2023-07-25T00:24:40.941Z,95.9
2023-07-25T00:25:57.220Z,95.9
2023-07-25T00:27:13.521Z,96.1
2023-07-25T00:28:29.800Z,96.3
2023-07-25T00:29:46.107Z,96.2
2023-07-25T00:31:01.429Z,96.1
2023-07-25T00:32:17.719Z,96
2023-07-25T00:33:34.012Z,96
2023-07-25T00:34:50.301Z,96
2023-07-25T00:36:06.599Z,96.2
2023-07-25T00:37:22.885Z,96.3
2023-07-25T00:38:39.176Z,96.4
2023-07-25T00:39:55.473Z,96.3
2023-07-25T00:41:11.760Z,96.4
2023-07-25T00:42:28.053Z,96.5
2023-07-25T00:43:44.359Z,96.6
2023-07-25T00:45:00.651Z,96.7
2023-07-25T00:46:16.947Z,97
2023-07-25T00:47:32.249Z,97
2023-07-25T00:48:48.544Z,97
2023-07-25T00:50:04.844Z,97
2023-07-25T00:51:21.109Z,96.9
2023-07-25T00:52:37.433Z,97.1
2023-07-25T00:53:53.722Z,96.9
2023-07-25T00:55:10.018Z,97.2
2023-07-25T00:56:26.302Z,97.2
2023-07-25T00:57:42.592Z,97.4
2023-07-25T00:58:58.896Z,97.3
2023-07-25T01:00:15.188Z,97.3
2023-07-25T01:01:31.470Z,97.5
2023-07-25T01:02:47.762Z,97.5
2023-07-25T01:04:03.088Z,97.6
2023-07-25T01:05:19.378Z,97.7
2023-07-25T01:06:35.645Z,97.8
2023-07-25T01:07:51.964Z,97.9
2023-07-25T01:09:08.251Z,97.9
2023-07-25T01:10:24.545Z,98.2
2023-07-25T01:11:40.837Z,98.2
2023-07-25T01:12:57.136Z,98.3
2023-07-25T01:14:13.417Z,98.3
2023-07-25T01:15:29.715Z,98.4
2023-07-25T01:16:46.012Z,98.3
2023-07-25T01:18:02.303Z,98.3
2023-07-25T01:19:18.598Z,98.4
2023-07-25T01:20:33.907Z,98.3
2023-07-25T01:21:50.198Z,98.3
2023-07-25T01:23:06.497Z,98.2
2023-07-25T01:24:22.801Z,98.3
2023-07-25T01:25:39.082Z,98.2
2023-07-25T01:26:55.385Z,98.3
2023-07-25T01:29:27.937Z,98
2023-07-25T01:30:44.265Z,98
2023-07-25T01:32:00.554Z,97.7
2023-07-25T01:33:16.854Z,97.9
2023-07-25T01:34:33.141Z,97.9
2023-07-25T01:35:49.438Z,97.9
2023-07-25T01:37:05.839Z,97.9
2023-07-25T01:38:22.132Z,97.9
2023-07-25T01:39:38.422Z,97.8
2023-07-25T01:40:54.732Z,97.9
2023-07-25T01:42:11.018Z,98.1
2023-07-25T01:43:27.320Z,98.2
2023-07-25T01:44:43.582Z,98.2
2023-07-25T01:45:59.898Z,98.4
2023-07-25T01:47:16.192Z,98.4
2023-07-25T01:48:32.494Z,98.3
2023-07-25T01:49:48.769Z,98.3
2023-07-25T01:51:05.079Z,98.5
2023-07-25T01:52:21.364Z,98.5
2023-07-25T01:53:36.683Z,98.6
2023-07-25T01:54:52.965Z,98.6
2023-07-25T01:56:09.255Z,98.3
2023-07-25T01:57:25.562Z,98.1
2023-07-25T01:58:41.845Z,98
2023-07-25T01:59:58.136Z,98.1
2023-07-25T02:01:13.467Z,98.2
2023-07-25T02:02:29.756Z,98.3
2023-07-25T02:03:46.044Z,98.5
2023-07-25T02:05:02.342Z,98.5
2023-07-25T02:06:18.640Z,98.5
2023-07-25T02:07:34.928Z,98.6
2023-07-25T02:08:51.228Z,98.6
2023-07-25T02:10:07.489Z,98.5
2023-07-25T02:11:23.795Z,98.5
2023-07-25T02:12:40.106Z,98.6
2023-07-25T02:13:56.384Z,98.7
2023-07-25T02:15:12.696Z,98.9
2023-07-25T02:16:28.990Z,98.9
2023-07-25T02:17:44.293Z,98.8
2023-07-25T02:19:00.582Z,98.8
2023-07-25T02:20:16.869Z,98.9
2023-07-25T02:21:33.177Z,99
2023-07-25T02:22:49.442Z,99
2023-07-25T02:24:05.768Z,99.1
2023-07-25T02:25:22.029Z,99.1
2023-07-25T02:26:38.336Z,98.8
2023-07-25T02:27:54.629Z,98.7
2023-07-25T02:29:10.925Z,98.7
2023-07-25T02:30:27.223Z,98.4
2023-07-25T02:31:43.520Z,98.3
2023-07-25T02:32:59.806Z,98.3
2023-07-25T02:34:15.113Z,98
2023-07-25T02:35:31.385Z,97.9
2023-07-25T02:36:47.712Z,97.9
2023-07-25T02:38:03.994Z,97.8
2023-07-25T02:39:20.291Z,97.9
2023-07-25T02:40:36.586Z,97.9
2023-07-25T02:41:52.883Z,97.8
2023-07-25T02:43:09.169Z,98
2023-07-25T02:44:25.465Z,98.1
2023-07-25T02:45:41.705Z,98
2023-07-25T02:46:57.972Z,98.2
2023-07-25T02:48:14.207Z,98.1
2023-07-25T02:49:30.437Z,98.2
2023-07-25T02:50:45.701Z,98.1
2023-07-25T02:52:01.928Z,98.2
2023-07-25T02:53:18.166Z,98.3
2023-07-25T02:54:34.421Z,98.3
2023-07-25T02:55:50.659Z,98.3
2023-07-25T02:57:06.912Z,98.3
2023-07-25T02:58:23.146Z,98.2
2023-07-25T02:59:39.381Z,98.2
2023-07-25T03:00:55.631Z,98.3
2023-07-25T03:02:11.859Z,98.4
2023-07-25T03:03:28.100Z,98.1
2023-07-25T03:04:44.347Z,98.1
2023-07-25T03:06:00.588Z,98.2
2023-07-25T03:07:15.846Z,98.1
2023-07-25T03:08:32.048Z,97.9
2023-07-25T03:09:48.323Z,97.7
2023-07-25T03:11:04.537Z,97.5
2023-07-25T03:12:20.789Z,97.6
2023-07-25T03:13:37.028Z,97.2
2023-07-25T03:14:53.273Z,97.4
2023-07-25T03:16:09.521Z,97.4
2023-07-25T03:17:25.746Z,97.4
2023-07-25T03:18:41.990Z,97.4
2023-07-25T03:19:58.222Z,97.5
2023-07-25T03:21:14.458Z,97.3
2023-07-25T03:22:30.706Z,97.4
2023-07-25T03:23:45.957Z,97.4
2023-07-25T03:25:02.198Z,97.4
2023-07-25T03:26:18.410Z,97.3
2023-07-25T03:27:34.676Z,97.4
2023-07-25T03:28:50.914Z,97.3
2023-07-25T03:30:07.169Z,97.4
2023-07-25T03:31:23.410Z,97.5
2023-07-25T03:32:39.642Z,97.5
2023-07-25T03:33:55.877Z,97.5
2023-07-25T03:35:12.119Z,97.5
2023-07-25T03:36:28.325Z,97.4
2023-07-25T03:37:44.588Z,97.2
2023-07-25T03:39:00.824Z,97.3
2023-07-25T03:40:17.069Z,97.3
2023-07-25T03:41:33.435Z,97.4
2023-07-25T03:42:49.675Z,97.3
2023-07-25T03:44:05.912Z,97.3
2023-07-25T03:45:22.159Z,97.1
2023-07-25T03:46:38.393Z,97.2
2023-07-25T03:47:54.621Z,97.3
2023-07-25T03:49:10.880Z,97.4
2023-07-25T03:50:27.116Z,97.3
2023-07-25T03:51:43.326Z,97.3
2023-07-25T03:52:59.588Z,97.3
2023-07-25T03:54:15.822Z,97.3
2023-07-25T03:55:32.073Z,97.1
2023-07-25T03:56:48.300Z,97.1
2023-07-25T03:58:03.571Z,97
2023-07-25T03:59:19.794Z,97
2023-07-25T04:00:36.048Z,96.8
2023-07-25T04:01:52.253Z,96.6
2023-07-25T04:03:08.518Z,96.4
2023-07-25T04:04:24.730Z,96.1
2023-07-25T04:05:40.995Z,96.3
2023-07-25T04:06:57.200Z,96.5
2023-07-25T04:08:13.467Z,96.5
2023-07-25T04:09:29.708Z,96.6
2023-07-25T04:10:45.948Z,96.5
2023-07-25T04:12:02.202Z,96.4
2023-07-25T04:13:18.435Z,96.6
2023-07-25T04:14:33.652Z,96.5
2023-07-25T04:15:49.925Z,96.2
2023-07-25T04:17:06.150Z,96
2023-07-25T04:18:22.412Z,95.9
2023-07-25T04:19:38.646Z,96.2
2023-07-25T04:20:54.890Z,95.8
2023-07-25T04:22:11.132Z,95.7
2023-07-25T04:23:27.365Z,95.6
2023-07-25T04:24:43.606Z,95.5
2023-07-25T04:25:59.853Z,95.7
2023-07-25T04:27:16.059Z,95.6
2023-07-25T04:28:32.325Z,95.7
2023-07-25T04:29:48.539Z,95.3
2023-07-25T04:31:03.819Z,95
2023-07-25T04:32:20.017Z,95.1
2023-07-25T04:33:36.291Z,95.2
2023-07-25T04:34:52.535Z,95.3
2023-07-25T04:36:08.767Z,95.4
2023-07-25T04:37:25.007Z,95.3
2023-07-25T04:38:41.255Z,95.1
2023-07-25T04:39:57.496Z,95
2023-07-25T04:41:13.722Z,95.2
2023-07-25T04:42:29.961Z,95.4
2023-07-25T04:43:46.202Z,95.6
2023-07-25T04:45:02.444Z,95.6
2023-07-25T04:46:18.681Z,95.6
2023-07-25T04:47:33.939Z,95.6
2023-07-25T04:48:50.170Z,95.2
2023-07-25T04:50:06.413Z,95
2023-07-25T04:51:22.652Z,94.7
2023-07-25T04:52:38.897Z,94.4
2023-07-25T04:53:55.126Z,94.3
2023-07-25T04:55:11.383Z,94.2
2023-07-25T04:56:27.619Z,94
2023-07-25T04:57:43.857Z,94.2
2023-07-25T04:59:00.084Z,94
2023-07-25T05:00:16.334Z,93.8
2023-07-25T05:01:32.578Z,94
2023-07-25T05:02:48.814Z,94
2023-07-25T05:04:04.070Z,93.9
2023-07-25T05:05:20.309Z,93
2023-07-25T05:06:36.550Z,93.5
2023-07-25T05:07:52.793Z,93.5
2023-07-25T05:09:09.019Z,93.4
2023-07-25T05:10:25.257Z,93.3
2023-07-25T05:11:41.505Z,92.7
2023-07-25T05:12:57.750Z,92.4
2023-07-25T05:14:13.987Z,92.2
2023-07-25T05:15:30.225Z,91.9
2023-07-25T05:16:46.464Z,91.4
2023-07-25T05:18:02.695Z,91.4
2023-07-25T05:19:18.935Z,91.3
2023-07-25T05:20:34.190Z,91.6
2023-07-25T05:21:50.442Z,91.6
2023-07-25T05:23:06.666Z,91.5
2023-07-25T05:24:22.920Z,91.2
2023-07-25T05:25:39.152Z,91.2
2023-07-25T05:26:55.385Z,91.6
2023-07-25T05:28:11.622Z,91.5
2023-07-25T05:29:27.877Z,91
2023-07-25T05:30:44.102Z,91.1
2023-07-25T05:32:00.346Z,90.8
2023-07-25T05:33:16.582Z,90.4
2023-07-25T05:34:32.820Z,90.7
2023-07-25T05:35:49.064Z,91
2023-07-25T05:37:04.319Z,91.2
2023-07-25T05:38:20.559Z,90.8
2023-07-25T05:39:36.793Z,91
2023-07-25T05:40:53.046Z,91.1
2023-07-25T05:42:09.280Z,91.2
2023-07-25T05:43:25.524Z,90.8
2023-07-25T05:44:41.760Z,90.8
2023-07-25T05:45:58.000Z,90.4
2023-07-25T05:47:14.245Z,89.7
2023-07-25T05:48:30.467Z,90.1
2023-07-25T05:49:46.707Z,90.6
2023-07-25T05:51:02.943Z,89.8
2023-07-25T05:52:19.185Z,90
2023-07-25T05:53:34.455Z,89.8
2023-07-25T05:54:50.677Z,89.7
2023-07-25T05:56:06.932Z,89.1
2023-07-25T05:57:23.170Z,89.4
2023-07-25T05:58:39.413Z,89.8
2023-07-25T05:59:55.654Z,89
2023-07-25T06:01:11.875Z,89.5
2023-07-25T06:02:28.115Z,88.3
2023-07-25T06:03:44.352Z,87.9
2023-07-25T06:05:00.598Z,87.3
2023-07-25T06:06:16.835Z,87
2023-07-25T06:07:33.067Z,86.8
2023-07-25T06:08:49.316Z,86.5
2023-07-25T06:10:04.583Z,87.2
2023-07-25T06:11:20.805Z,87.3
2023-07-25T06:12:37.050Z,87.8
2023-07-25T06:13:53.290Z,87.4
2023-07-25T06:15:09.535Z,86.5
2023-07-25T06:16:24.781Z,86.1
2023-07-25T06:17:41.022Z,86.2
2023-07-25T06:18:57.270Z,84.5
2023-07-25T06:20:13.499Z,84.9
2023-07-25T06:21:29.739Z,85
2023-07-25T06:22:45.989Z,85.3
2023-07-25T06:24:02.000Z,85
2023-07-25T06:25:18.472Z,84
2023-07-25T06:26:34.696Z,84.8
2023-07-25T06:27:50.943Z,85.3
2023-07-25T06:29:07.178Z,84.3
2023-07-25T06:30:23.429Z,83.9
2023-07-25T06:31:39.663Z,83.4
2023-07-25T06:32:54.925Z,83.7
2023-07-25T06:34:11.167Z,83.8
2023-07-25T06:35:27.405Z,84
2023-07-25T06:36:43.630Z,84.3
2023-07-25T06:37:59.881Z,83.5
2023-07-25T06:39:16.116Z,83.9
2023-07-25T06:40:32.350Z,82.8
2023-07-25T06:41:48.605Z,82.8
2023-07-25T06:43:04.827Z,83.2
2023-07-25T06:44:21.080Z,82.2
2023-07-25T06:45:37.307Z,81.5
2023-07-25T06:46:53.516Z,80.3
2023-07-25T06:48:09.803Z,80.5
2023-07-25T06:49:25.057Z,80.6
2023-07-25T06:50:41.293Z,80.3
2023-07-25T06:51:57.530Z,80.5
2023-07-25T06:53:13.767Z,81.1
2023-07-25T06:54:30.002Z,81.8
2023-07-25T06:55:46.258Z,81.3
2023-07-25T06:57:02.489Z,82.4
2023-07-25T06:58:18.725Z,82.8
2023-07-25T06:59:34.930Z,82.5
2023-07-25T07:00:51.213Z,82.5
2023-07-25T07:02:07.408Z,81.8
2023-07-25T07:03:23.701Z,82.5
2023-07-25T07:04:39.934Z,81.4
2023-07-25T07:05:55.196Z,81.9
2023-07-25T07:07:11.432Z,80.2
2023-07-25T07:08:27.659Z,78.8
2023-07-25T07:09:43.908Z,78.8
2023-07-25T07:11:00.137Z,79.3
2023-07-25T07:12:16.378Z,79.8
2023-07-25T07:13:32.631Z,79.2
2023-07-25T07:14:48.821Z,79.8
2023-07-25T07:16:05.107Z,78.7
2023-07-25T07:17:21.352Z,78.5
2023-07-25T07:18:37.581Z,78.4
2023-07-25T07:19:53.828Z,78.6
2023-07-25T07:21:10.053Z,78.4
2023-07-25T07:22:25.316Z,77.9
2023-07-25T07:23:41.554Z,77.7
2023-07-25T07:24:57.751Z,77.3
2023-07-25T07:26:14.043Z,76.6
2023-07-25T07:27:30.281Z,76.4
2023-07-25T07:28:46.515Z,76.8
2023-07-25T07:30:02.743Z,77.3
2023-07-25T07:31:18.998Z,76.1
2023-07-25T07:32:35.225Z,75.4
2023-07-25T07:33:51.478Z,75.7
2023-07-25T07:35:07.708Z,74.9
2023-07-25T07:36:23.955Z,75.2
2023-07-25T07:37:40.182Z,74.9
2023-07-25T07:38:55.436Z,74.4
2023-07-25T07:40:11.683Z,74.6
2023-07-25T07:41:27.910Z,74.6
2023-07-25T07:42:44.165Z,74.7
2023-07-25T07:44:00.403Z,75
2023-07-25T07:45:16.636Z,73.3
2023-07-25T07:46:32.873Z,73.7
2023-07-25T07:47:49.117Z,74.7
2023-07-25T07:49:05.357Z,73.6
2023-07-25T07:50:21.595Z,74.3
2023-07-25T07:51:37.836Z,74.5
2023-07-25T07:52:54.039Z,75.1
2023-07-25T07:54:10.303Z,72.9
2023-07-25T07:55:25.554Z,73
2023-07-25T07:56:41.796Z,71.7
2023-07-25T07:57:58.040Z,71.7
2023-07-25T07:59:14.282Z,71
2023-07-25T08:00:30.513Z,71.8
2023-07-25T08:01:46.759Z,72.6
2023-07-25T08:03:03.002Z,72.3
2023-07-25T08:04:19.241Z,71.1
2023-07-25T08:05:35.483Z,71.5
2023-07-25T08:06:51.706Z,71.2
2023-07-25T08:08:07.957Z,71.9
2023-07-25T08:09:24.182Z,72.5
2023-07-25T08:10:40.438Z,71.8
2023-07-25T08:11:55.677Z,70.7
2023-07-25T08:13:11.929Z,71.3
2023-07-25T08:14:28.166Z,70.8
2023-07-25T08:15:44.409Z,71.5
2023-07-25T08:17:00.653Z,71.5
2023-07-25T08:18:16.885Z,72.1
2023-07-25T08:19:33.119Z,71.7
2023-07-25T08:20:49.360Z,71.6
2023-07-25T08:22:05.609Z,70.7
2023-07-25T08:23:21.834Z,69.8
2023-07-25T08:24:38.080Z,69.5
2023-07-25T08:25:54.322Z,69.6
2023-07-25T08:27:10.546Z,68.8
2023-07-25T08:28:26.910Z,69
2023-07-25T08:29:43.163Z,68.5
2023-07-25T08:30:59.363Z,67.5
2023-07-25T08:32:15.635Z,68.3
2023-07-25T08:33:31.883Z,68.5
2023-07-25T08:34:48.114Z,67.7
2023-07-25T08:36:04.345Z,66.8
2023-07-25T08:37:20.586Z,66.8
2023-07-25T08:38:36.841Z,66.3
2023-07-25T08:39:53.078Z,66.9
2023-07-25T08:41:09.321Z,66.4
2023-07-25T08:42:25.554Z,67.4
2023-07-25T08:43:41.789Z,67.5
2023-07-25T08:44:57.048Z,67.6
2023-07-25T08:46:13.292Z,68.3
2023-07-25T08:47:29.521Z,67.5
2023-07-25T08:48:45.754Z,67.5
2023-07-25T08:50:02.008Z,67.5
2023-07-25T08:51:18.249Z,68.2
2023-07-25T08:52:34.487Z,68.4
2023-07-25T08:53:50.711Z,67.1
2023-07-25T08:55:06.968Z,66.5
2023-07-25T08:56:23.210Z,66.5
2023-07-25T08:57:39.447Z,66
2023-07-25T08:58:55.684Z,65.8
2023-07-25T09:00:11.912Z,65.2
2023-07-25T09:01:27.181Z,66.2
2023-07-25T09:02:43.410Z,65.5
2023-07-25T09:03:59.660Z,65.1
2023-07-25T09:05:15.887Z,63.7
2023-07-25T09:06:32.140Z,65.7
2023-07-25T09:07:48.368Z,66
2023-07-25T09:09:04.607Z,65.7
2023-07-25T09:10:20.847Z,65
2023-07-25T09:11:37.091Z,64.9
2023-07-25T09:12:53.319Z,64.9
2023-07-25T09:14:09.577Z,64.5
2023-07-25T09:15:25.803Z,64.2
2023-07-25T09:16:42.041Z,64.6
2023-07-25T09:17:57.293Z,64.4
2023-07-25T09:19:13.503Z,63.8
2023-07-25T09:20:29.792Z,64.3
2023-07-25T09:21:45.975Z,64.5
2023-07-25T09:23:02.256Z,63.2
2023-07-25T09:24:18.500Z,63.2
2023-07-25T09:25:34.742Z,62.8
2023-07-25T09:26:50.973Z,62.4
2023-07-25T09:28:07.214Z,62.8
2023-07-25T09:29:23.451Z,63.1
2023-07-25T09:30:39.689Z,63.4
2023-07-25T09:31:55.936Z,62.5
2023-07-25T09:33:12.168Z,62.5
2023-07-25T09:34:27.433Z,62.4
2023-07-25T09:35:43.672Z,63.1
2023-07-25T09:36:59.916Z,62.3
2023-07-25T09:38:16.143Z,62.8
2023-07-25T09:39:32.392Z,63
2023-07-25T09:40:48.636Z,62.4
2023-07-25T09:42:04.817Z,61.6
2023-07-25T09:43:21.112Z,61.2
2023-07-25T09:44:37.346Z,62.6
2023-07-25T09:45:53.580Z,61.1
2023-07-25T09:47:09.816Z,61.1
2023-07-25T09:48:26.056Z,61.1
2023-07-25T09:49:42.305Z,61.2
2023-07-25T09:52:13.788Z,61.3
2023-07-25T09:53:30.023Z,61.4
2023-07-25T09:54:46.263Z,61.3
2023-07-25T09:56:02.521Z,61.5
2023-07-25T09:57:18.747Z,60.9
2023-07-25T09:58:34.984Z,60.9
2023-07-25T09:59:51.189Z,60.7
2023-07-25T10:01:07.461Z,60.5
2023-07-25T10:02:23.662Z,60.4
2023-07-25T10:03:39.947Z,60.7
2023-07-25T10:04:56.191Z,60.1
2023-07-25T10:06:12.437Z,60.8
2023-07-25T10:07:27.690Z,60.1
2023-07-25T10:08:43.926Z,60
2023-07-25T10:10:00.154Z,59.8
2023-07-25T10:11:16.392Z,59.3
2023-07-25T10:12:32.631Z,59.8
2023-07-25T10:13:48.870Z,58.9
2023-07-25T10:15:05.109Z,59.3
2023-07-25T10:16:21.362Z,58.9
2023-07-25T10:17:37.589Z,59.5
2023-07-25T10:18:53.835Z,59.1
2023-07-25T10:20:10.070Z,58.5
2023-07-25T10:21:26.303Z,57.9
2023-07-25T10:22:42.546Z,57.6
2023-07-25T10:23:57.801Z,58.1
2023-07-25T10:25:14.046Z,58.4
2023-07-25T10:26:30.287Z,58.9
2023-07-25T10:27:46.534Z,57.8
2023-07-25T10:29:02.756Z,57
2023-07-25T10:30:18.994Z,57.3
2023-07-25T10:31:34.264Z,57.2
2023-07-25T10:32:50.508Z,56.7
2023-07-25T10:34:06.743Z,56.5
2023-07-25T10:36:39.214Z,57.2
2023-07-25T10:37:55.455Z,57
2023-07-25T10:39:11.696Z,58.3
2023-07-25T10:40:27.946Z,59.1
2023-07-25T10:41:44.168Z,59.1
2023-07-25T10:43:00.412Z,59
2023-07-25T10:44:16.664Z,59.7
2023-07-25T10:45:32.903Z,60.3
2023-07-25T10:46:49.136Z,60.5
2023-07-25T10:48:04.381Z,60.9
2023-07-25T10:49:20.638Z,60.2
2023-07-25T10:50:36.858Z,59.4
2023-07-25T10:51:53.111Z,59.7
2023-07-25T10:53:09.338Z,59.5
2023-07-25T10:54:25.584Z,58.7
2023-07-25T10:55:41.823Z,58.3
2023-07-25T10:56:58.060Z,58
2023-07-25T10:58:14.305Z,57.9
2023-07-25T10:59:30.548Z,58.8
2023-07-25T11:00:46.778Z,58.7
2023-07-25T11:02:03.010Z,59
2023-07-25T11:03:19.257Z,57.9
2023-07-25T11:04:34.511Z,58.6
2023-07-25T11:05:50.758Z,57.6
2023-07-25T11:07:07.000Z,57.8
2023-07-25T11:08:23.221Z,57.6
2023-07-25T11:09:39.476Z,55.8
2023-07-25T11:10:55.703Z,55.8
2023-07-25T11:12:11.947Z,56
2023-07-25T11:13:28.177Z,57
2023-07-25T11:14:44.435Z,57.9
2023-07-25T11:16:00.672Z,58.7
2023-07-25T11:17:16.903Z,58.8
2023-07-25T11:18:33.154Z,59.5
2023-07-25T11:19:49.389Z,60
2023-07-25T11:21:04.645Z,60.8
2023-07-25T11:22:20.883Z,61
2023-07-25T11:23:37.117Z,61.4
2023-07-25T11:24:53.364Z,61.1
2023-07-25T11:26:09.589Z,60.9
2023-07-25T11:27:25.826Z,61.4
2023-07-25T11:28:42.085Z,60.8
2023-07-25T11:29:58.312Z,60.6
2023-07-25T11:31:14.554Z,60.6
2023-07-25T11:32:30.803Z,60.3
2023-07-25T11:33:47.026Z,60.3
2023-07-25T11:35:03.267Z,60.2
2023-07-25T11:36:19.516Z,60.1
2023-07-25T11:37:34.775Z,59.9
2023-07-25T11:38:50.959Z,60.8
2023-07-25T11:40:07.240Z,59.9
2023-07-25T11:41:23.483Z,60.3
2023-07-25T11:42:39.723Z,59.8
2023-07-25T11:43:55.958Z,60.6
2023-07-25T11:45:12.210Z,60.1
2023-07-25T11:46:28.431Z,59.1
2023-07-25T11:47:44.672Z,59.8
2023-07-25T11:49:00.912Z,59.7
2023-07-25T11:50:17.170Z,59.5
2023-07-25T11:51:33.407Z,59.6
2023-07-25T11:52:49.627Z,59.4
2023-07-25T11:54:05.873Z,58.3
2023-07-25T11:55:21.132Z,58.5
2023-07-25T11:56:37.374Z,58.3
2023-07-25T11:57:53.608Z,58.4
2023-07-25T11:59:09.847Z,58.4
2023-07-25T12:00:26.092Z,58
2023-07-25T12:01:42.337Z,58.3
2023-07-25T12:02:58.570Z,58.2
2023-07-25T12:04:14.800Z,59.1
2023-07-25T12:05:31.045Z,58.6
2023-07-25T12:06:47.295Z,58.3
2023-07-25T12:08:03.535Z,58.8
2023-07-25T12:09:19.764Z,60.1
2023-07-25T12:10:35.996Z,60.2
2023-07-25T12:11:51.261Z,59.8
2023-07-25T12:13:07.498Z,60.4
2023-07-25T12:14:23.731Z,59.7
2023-07-25T12:15:39.976Z,59.6
2023-07-25T12:16:56.212Z,59.9
2023-07-25T12:18:12.447Z,59.2
2023-07-25T12:19:28.696Z,59.2
2023-07-25T12:20:44.924Z,59.9
2023-07-25T12:22:01.169Z,60
2023-07-25T12:23:17.415Z,60.7
2023-07-25T12:24:33.659Z,60.9
2023-07-25T12:25:49.884Z,61.9
2023-07-25T12:27:06.120Z,61.6
2023-07-25T12:28:21.387Z,62.3
2023-07-25T12:29:37.622Z,62.1
2023-07-25T12:30:53.858Z,63.8
2023-07-25T12:33:26.336Z,63.1
2023-07-25T12:34:42.574Z,64.1
2023-07-25T12:35:58.828Z,64.8
2023-07-25T12:37:15.057Z,65.5
2023-07-25T12:38:31.306Z,66.4
2023-07-25T12:39:47.541Z,66.7
2023-07-25T12:41:03.773Z,66.3
2023-07-25T12:42:20.017Z,67.1
2023-07-25T12:43:36.250Z,68.2
2023-07-25T12:44:52.610Z,68.5
2023-07-25T12:46:08.854Z,68
2023-07-25T12:47:25.102Z,68.1
2023-07-25T12:48:41.341Z,70.5
2023-07-25T12:49:57.566Z,71.2
2023-07-25T12:51:13.813Z,71
2023-07-25T12:52:30.000Z,70.2
2023-07-25T12:53:46.292Z,69
2023-07-25T12:55:02.524Z,67.7
2023-07-25T12:56:18.772Z,65.9
2023-07-25T12:57:35.011Z,68.5
2023-07-25T12:58:51.245Z,66.8
2023-07-25T13:00:07.496Z,68.2
2023-07-25T13:01:22.744Z,69
2023-07-25T13:02:38.993Z,67.8
2023-07-25T13:03:55.231Z,68.2
2023-07-25T13:05:11.461Z,69.5
2023-07-25T13:06:27.710Z,70.1
2023-07-25T13:07:43.946Z,69.3
2023-07-25T13:09:00.190Z,67.7
2023-07-25T13:10:16.412Z,68
2023-07-25T13:11:32.664Z,69.2
2023-07-25T13:12:48.903Z,68.1
2023-07-25T13:14:05.135Z,67.9
2023-07-25T13:15:21.372Z,67.4
2023-07-25T13:16:37.621Z,67.8
2023-07-25T13:17:53.983Z,67.7
2023-07-25T13:19:10.214Z,67.4
2023-07-25T13:20:26.447Z,68.3
2023-07-25T13:21:42.700Z,69.8
2023-07-25T13:22:58.925Z,69
2023-07-25T13:24:15.166Z,67.5
2023-07-25T13:25:31.420Z,68.1
2023-07-25T13:26:47.648Z,68.9
2023-07-25T13:28:03.888Z,69.8
2023-07-25T13:29:20.129Z,69.1
2023-07-25T13:30:36.378Z,69.3
2023-07-25T13:31:52.618Z,66
2023-07-25T13:33:08.857Z,65.9
2023-07-25T13:34:24.111Z,68.5
2023-07-25T13:35:40.346Z,67
2023-07-25T13:36:56.587Z,67
2023-07-25T13:38:12.824Z,67
2023-07-25T13:39:29.065Z,68.6
2023-07-25T13:40:45.310Z,67.2
2023-07-25T13:42:01.539Z,68.7
2023-07-25T13:43:17.780Z,67.8
2023-07-25T13:44:34.018Z,67.8
2023-07-25T13:45:50.258Z,67.1
2023-07-25T13:47:06.501Z,66.7
2023-07-25T13:48:22.729Z,67.8
2023-07-25T13:49:38.976Z,67.3
2023-07-25T13:50:54.234Z,66.8
2023-07-25T13:52:10.482Z,66
2023-07-25T13:53:26.709Z,67.4
2023-07-25T13:54:42.946Z,67.4
2023-07-25T13:55:59.199Z,65.1
2023-07-25T13:57:15.423Z,65.6
2023-07-25T13:58:31.677Z,64.5
2023-07-25T13:59:47.902Z,65.1
2023-07-25T14:01:04.141Z,65.8
2023-07-25T14:02:20.391Z,65.5
2023-07-25T14:03:36.623Z,64.3
2023-07-25T14:04:52.862Z,64.8
2023-07-25T14:06:09.105Z,63.7
2023-07-25T14:07:24.369Z,64.2
2023-07-25T14:08:40.610Z,62.6
2023-07-25T14:09:56.834Z,65.9
2023-07-25T14:11:13.073Z,64.6
2023-07-25T14:12:29.325Z,63.5
2023-07-25T14:13:45.565Z,65.5
2023-07-25T14:15:01.806Z,66.5
2023-07-25T14:16:18.036Z,64.5
2023-07-25T14:17:34.282Z,64.6
2023-07-25T14:18:50.521Z,64.5
2023-07-25T14:20:06.744Z,67.2
2023-07-25T14:21:22.999Z,65.7
2023-07-25T14:22:39.224Z,65.6
2023-07-25T14:23:54.486Z,66.9
2023-07-25T14:25:10.718Z,67.7
2023-07-25T14:26:26.970Z,67.8
2023-07-25T14:27:43.200Z,65.4
2023-07-25T14:28:59.454Z,68.3
2023-07-25T14:30:15.689Z,67.8
2023-07-25T14:31:31.918Z,70
2023-07-25T14:32:48.152Z,68.5
2023-07-25T14:34:04.409Z,66.5
2023-07-25T14:35:20.645Z,66.8
2023-07-25T14:36:36.880Z,66.1
2023-07-25T14:37:53.117Z,65.9
2023-07-25T14:39:09.361Z,65
2023-07-25T14:40:24.607Z,66.5
2023-07-25T14:41:40.852Z,67.7
2023-07-25T14:42:57.087Z,66.8
2023-07-25T14:44:13.277Z,67.5
2023-07-25T14:45:29.561Z,67.8
2023-07-25T14:46:45.949Z,67.8
2023-07-25T14:48:02.169Z,67.3
2023-07-25T14:49:18.406Z,67.7
2023-07-25T14:50:34.659Z,67.7
2023-07-25T14:51:50.896Z,67.8
2023-07-25T14:54:23.375Z,65.7
2023-07-25T14:56:55.850Z,67.3
2023-07-25T14:58:12.083Z,68.3
2023-07-25T14:59:28.326Z,68.8
2023-07-25T15:00:44.561Z,69.4
2023-07-25T15:02:00.799Z,70.6
2023-07-25T15:03:16.076Z,72
2023-07-25T15:04:32.303Z,72.9
2023-07-25T15:05:48.551Z,71.6
2023-07-25T15:07:04.772Z,71.8
2023-07-25T15:08:21.017Z,72.8
2023-07-25T15:09:37.264Z,72.4
2023-07-25T15:10:53.492Z,70.9
2023-07-25T15:12:09.729Z,71
2023-07-25T15:13:25.971Z,70.8
2023-07-25T15:14:42.160Z,69.7
2023-07-25T15:15:58.000Z,70.5
2023-07-25T15:17:14.696Z,71.5
2023-07-25T15:18:30.927Z,72.1
2023-07-25T15:19:46.184Z,72.1
2023-07-25T15:21:02.423Z,72.7
2023-07-25T15:22:18.662Z,74
2023-07-25T15:23:34.906Z,73.6
2023-07-25T15:24:51.147Z,74
2023-07-25T15:26:07.379Z,74.5
2023-07-25T15:27:23.626Z,74.4
2023-07-25T15:28:39.856Z,75.3
2023-07-25T15:29:56.108Z,76
2023-07-25T15:31:12.342Z,75.8
2023-07-25T15:32:28.579Z,75.4
2023-07-25T15:33:44.823Z,76.8
2023-07-25T15:35:01.054Z,77.1
2023-07-25T15:36:16.311Z,76.4
2023-07-25T15:37:32.555Z,77.1
2023-07-25T15:38:48.785Z,77.3
2023-07-25T15:40:05.038Z,75.7
2023-07-25T15:41:21.273Z,75.9
2023-07-25T15:42:37.506Z,76
2023-07-25T15:43:53.685Z,75.7
2023-07-25T15:45:09.976Z,75.7
2023-07-25T15:46:26.225Z,76.9
2023-07-25T15:47:42.456Z,75.4
2023-07-25T15:48:58.702Z,77.1
2023-07-25T15:50:14.939Z,76.8
2023-07-25T15:51:31.186Z,76.5
2023-07-25T15:52:46.444Z,76.8
2023-07-25T15:54:02.663Z,77.2
2023-07-25T15:55:18.917Z,77.7
2023-07-25T15:56:35.160Z,77.1
2023-07-25T15:57:51.387Z,77.6
2023-07-25T15:59:07.634Z,78.7
2023-07-25T16:00:23.859Z,77.6
2023-07-25T16:01:40.111Z,77.7
2023-07-25T16:02:56.354Z,77.6
2023-07-25T16:04:12.577Z,77.8
2023-07-25T16:05:28.819Z,77.4
2023-07-25T16:06:45.051Z,80.2
2023-07-25T16:08:01.298Z,78.4
2023-07-25T16:09:16.551Z,78.6
2023-07-25T16:10:32.800Z,80.1
2023-07-25T16:11:49.031Z,79.8
2023-07-25T16:13:05.266Z,77.8
2023-07-25T16:14:21.505Z,78.8
2023-07-25T16:15:37.745Z,79
2023-07-25T16:16:53.997Z,79.1
2023-07-25T16:18:10.236Z,79.7
2023-07-25T16:19:26.470Z,79.6
2023-07-25T16:20:42.705Z,80.2
2023-07-25T16:21:58.939Z,79.9
2023-07-25T16:23:15.185Z,76.3
2023-07-25T16:24:31.419Z,77.7
2023-07-25T16:25:47.786Z,76.9
2023-07-25T16:27:04.020Z,74.2
2023-07-25T16:28:20.269Z,71.5
2023-07-25T16:29:36.493Z,71.5
2023-07-25T16:30:52.736Z,73.2
2023-07-25T16:32:08.986Z,73.7
2023-07-25T16:33:25.206Z,73.9
2023-07-25T16:34:41.454Z,74.7
2023-07-25T16:35:57.699Z,74.6
2023-07-25T16:37:13.928Z,75.2
2023-07-25T16:38:30.163Z,74.7
2023-07-25T16:39:46.416Z,75.4
2023-07-25T16:41:02.648Z,75.9
2023-07-25T16:42:17.900Z,76.2
2023-07-25T16:43:34.143Z,77
2023-07-25T16:44:50.394Z,76.1
2023-07-25T16:46:06.633Z,76.8
2023-07-25T16:47:22.863Z,76.9
2023-07-25T16:48:39.111Z,76
2023-07-25T16:49:55.350Z,76.6
2023-07-25T16:51:11.577Z,76.7
2023-07-25T16:52:27.822Z,76.3
2023-07-25T16:53:44.054Z,77.6
2023-07-25T16:55:00.305Z,78.9
2023-07-25T16:56:16.536Z,77.8
2023-07-25T16:57:32.786Z,79.3
2023-07-25T16:58:47.979Z,79.8
2023-07-25T17:00:04.280Z,80.7
2023-07-25T17:01:20.520Z,80.7
2023-07-25T17:02:36.759Z,81.4
2023-07-25T17:03:53.003Z,82
2023-07-25T17:05:09.000Z,83
2023-07-25T17:06:25.467Z,83.7
2023-07-25T17:07:41.710Z,83
2023-07-25T17:08:57.950Z,83.8